KETH

Wheaton Municipal Airport

Wheaton, Minnesota, USA
METAR KETH 191611Z AUTO 33003KT 10SM CLR M23/M27 A3048 RMK AO2
Observed Flight Rules
Jan-19 @ 16:11 UTC (26 minutes ago) Visual Flight Rules
Wind Visibility Clouds
330° at 3 knots 10 miles
  • Clear skies
Temperatures Readings
Current -23°C / -9°F
Dewpoint -27°C / -17°F
Humidity 70%
Altimeter 30.48" Hg
Pressure 1032.21 hPa
Elevation 313
METAR KETH 191611Z AUTO 33003KT 10SM CLR M23/M27 A3048 RMK AO2
Observed Flight Rules
Jan-19 @ 16:11 UTC
(26 minutes ago)
VFR
Wind Visibility
330° at 3 knots 10 miles
Clouds
  • Clear skies
Temperature Dewpoint
-23°C / -9°F -27°C / -17°F
Humidity Altimeter Pressure
70% 30.48" Hg 1032.21 hPa